createdAt,value
2018-02-08T00:02:15.520Z,2.90
2018-02-08T00:04:45.154Z,2.90
2018-02-08T00:07:14.664Z,2.90
2018-02-08T00:09:44.166Z,3.50
2018-02-08T00:12:13.719Z,3.33
2018-02-08T00:14:43.269Z,2.50
2018-02-08T00:17:12.953Z,3.43
2018-02-08T00:19:46.480Z,2.90
2018-02-08T00:22:21.770Z,3.00
2018-02-08T00:24:51.349Z,3.60
2018-02-08T00:27:23.839Z,2.83
2018-02-08T00:29:53.415Z,3.17
2018-02-08T00:32:22.979Z,3.10
2018-02-08T00:34:52.521Z,3.03
2018-02-08T00:37:22.062Z,2.97
2018-02-08T00:39:51.589Z,2.73
2018-02-08T00:42:21.123Z,3.47
2018-02-08T00:44:50.569Z,3.57
2018-02-08T00:47:20.083Z,3.10
2018-02-08T00:49:49.633Z,3.40
2018-02-08T00:52:19.621Z,3.30
2018-02-08T00:54:49.107Z,3.23
2018-02-08T00:57:19.983Z,2.80
2018-02-08T00:59:49.473Z,2.50
2018-02-08T01:02:19.370Z,3.43
2018-02-08T01:04:49.123Z,3.17
2018-02-08T01:07:18.831Z,2.97
2018-02-08T01:09:48.367Z,3.63
2018-02-08T01:12:17.938Z,2.93
2018-02-08T01:14:47.485Z,3.77
2018-02-08T01:17:17.033Z,3.17
2018-02-08T01:19:46.975Z,3.70
2018-02-08T01:22:22.954Z,3.40
2018-02-08T01:24:52.665Z,3.20
2018-02-08T01:27:22.224Z,3.30
2018-02-08T01:30:04.030Z,3.50
2018-02-08T01:32:40.042Z,4.03
2018-02-08T01:35:09.570Z,3.63
2018-02-08T01:37:45.105Z,3.40
2018-02-08T01:40:14.594Z,3.50
2018-02-08T01:42:50.235Z,3.20
2018-02-08T01:45:19.793Z,3.77
2018-02-08T01:47:49.342Z,4.20
2018-02-08T01:50:19.455Z,3.60
2018-02-08T01:52:48.994Z,3.00
2018-02-08T01:55:33.528Z,3.60
2018-02-08T01:58:03.061Z,4.13
2018-02-08T02:00:32.587Z,4.70
2018-02-08T02:03:02.100Z,5.13
2018-02-08T02:05:32.137Z,4.23
2018-02-08T02:08:01.723Z,4.10
2018-02-08T02:10:31.295Z,3.60
2018-02-08T02:13:00.795Z,3.57
2018-02-08T02:15:31.036Z,3.60
2018-02-08T02:18:00.909Z,3.57
2018-02-08T02:20:37.929Z,3.70
2018-02-08T02:23:07.666Z,4.20
2018-02-08T02:25:37.265Z,4.00
2018-02-08T02:28:07.759Z,4.33
2018-02-08T02:30:37.362Z,4.47
2018-02-08T02:33:07.242Z,4.27
2018-02-08T02:35:36.930Z,3.73
2018-02-08T02:38:06.633Z,4.60
2018-02-08T02:40:36.181Z,4.00
2018-02-08T02:43:05.812Z,4.23
2018-02-08T02:45:35.411Z,4.93
2018-02-08T02:48:04.994Z,4.90
2018-02-08T02:50:34.567Z,4.40
2018-02-08T02:53:04.141Z,4.03
2018-02-08T02:55:33.758Z,4.20
2018-02-08T02:58:03.356Z,4.30
2018-02-08T03:00:46.834Z,5.10
2018-02-08T03:03:16.437Z,4.80
2018-02-08T03:05:46.021Z,3.40
2018-02-08T03:08:15.735Z,4.43
2018-02-08T03:10:45.277Z,4.80
2018-02-08T03:13:14.786Z,4.97
2018-02-08T03:15:44.421Z,4.50
2018-02-08T03:18:14.664Z,4.90
2018-02-08T03:20:44.207Z,4.60
2018-02-08T03:23:17.675Z,4.30
2018-02-08T03:25:47.245Z,4.10
2018-02-08T03:28:16.793Z,4.23
2018-02-08T03:31:01.692Z,5.07
2018-02-08T03:33:31.251Z,5.17
2018-02-08T03:36:07.702Z,4.83
2018-02-08T03:38:37.209Z,4.77
2018-02-08T03:41:06.722Z,4.83
2018-02-08T03:43:36.330Z,5.00
2018-02-08T03:46:05.884Z,4.40
2018-02-08T03:48:35.410Z,4.60
2018-02-08T03:51:04.941Z,5.00
2018-02-08T03:53:47.356Z,4.53
2018-02-08T03:56:16.931Z,4.40
2018-02-08T03:58:46.501Z,4.53
2018-02-08T04:01:16.046Z,5.07
2018-02-08T04:03:45.555Z,4.67
2018-02-08T04:06:23.405Z,4.70
2018-02-08T04:08:53.091Z,4.60
2018-02-08T04:11:23.023Z,4.47
2018-02-08T04:13:52.571Z,4.80
2018-02-08T04:16:22.162Z,4.20
2018-02-08T04:18:51.694Z,4.90
2018-02-08T04:21:21.182Z,4.77
2018-02-08T04:24:03.301Z,4.83
2018-02-08T04:26:32.873Z,5.43
2018-02-08T04:29:02.427Z,6.00
2018-02-08T04:31:31.953Z,5.00
2018-02-08T04:34:01.466Z,5.47
2018-02-08T04:36:43.655Z,5.80
2018-02-08T04:39:19.054Z,5.27
2018-02-08T04:41:54.342Z,4.70
2018-02-08T04:44:29.774Z,5.80
2018-02-08T04:47:05.077Z,6.50
2018-02-08T04:49:34.624Z,5.40
2018-02-08T04:52:11.431Z,5.60
2018-02-08T04:54:40.952Z,5.57
2018-02-08T04:57:16.783Z,6.30
2018-02-08T04:59:46.355Z,4.60
2018-02-08T05:02:24.669Z,5.33
2018-02-08T05:04:54.364Z,6.30
2018-02-08T05:07:25.198Z,6.00
2018-02-08T05:09:54.779Z,6.80
2018-02-08T05:12:24.325Z,5.60
2018-02-08T05:14:54.867Z,5.57
2018-02-08T05:17:37.606Z,6.00
2018-02-08T05:20:07.194Z,6.47
2018-02-08T05:22:42.719Z,6.73
2018-02-08T05:25:24.214Z,6.17
2018-02-08T05:27:53.791Z,6.57
2018-02-08T05:30:34.205Z,7.40
2018-02-08T05:33:03.756Z,6.53
2018-02-08T05:35:33.289Z,6.60
2018-02-08T05:38:04.481Z,7.17
2018-02-08T05:40:33.990Z,6.30
2018-02-08T05:43:03.520Z,7.13
2018-02-08T05:45:33.052Z,7.07
2018-02-08T05:48:02.611Z,6.30
2018-02-08T05:50:32.181Z,6.33
2018-02-08T05:53:01.733Z,6.07
2018-02-08T05:55:31.298Z,7.10
2018-02-08T05:58:00.912Z,6.90
2018-02-08T06:00:31.126Z,7.20
2018-02-08T06:03:01.894Z,6.47
2018-02-08T06:05:31.415Z,6.03
2018-02-08T06:08:00.922Z,6.90
2018-02-08T06:10:49.538Z,6.17
2018-02-08T06:13:19.078Z,7.50
2018-02-08T06:15:48.591Z,7.33
2018-02-08T06:18:18.167Z,7.37
2018-02-08T06:20:47.682Z,7.53
2018-02-08T06:23:17.640Z,8.10
2018-02-08T06:25:47.181Z,7.67
2018-02-08T06:28:16.711Z,6.70
2018-02-08T06:30:53.807Z,7.27
2018-02-08T06:33:23.373Z,6.30
2018-02-08T06:35:52.923Z,6.27
2018-02-08T06:38:22.502Z,8.07
2018-02-08T06:40:52.049Z,6.70
2018-02-08T06:43:21.546Z,7.50
2018-02-08T06:45:51.058Z,6.27
2018-02-08T06:48:21.538Z,7.40
2018-02-08T06:50:57.393Z,7.20
2018-02-08T06:53:26.929Z,6.30
2018-02-08T06:56:04.262Z,7.00
2018-02-08T06:58:33.819Z,5.87
2018-02-08T07:01:03.363Z,6.07
2018-02-08T07:03:32.857Z,6.10
2018-02-08T07:06:02.405Z,6.50
2018-02-08T07:08:31.944Z,6.10
2018-02-08T07:11:01.520Z,5.87
2018-02-08T07:13:31.021Z,6.10
2018-02-08T07:16:00.565Z,6.57
2018-02-08T07:18:30.115Z,5.00
2018-02-08T07:20:59.652Z,6.70
2018-02-08T07:23:43.369Z,6.40
2018-02-08T07:26:13.077Z,6.20
2018-02-08T07:28:42.569Z,5.67
2018-02-08T07:31:12.082Z,5.87
2018-02-08T07:33:41.629Z,5.93
2018-02-08T07:36:11.109Z,5.93
2018-02-08T07:38:40.587Z,5.23
2018-02-08T07:41:10.185Z,5.93
2018-02-08T07:43:39.747Z,5.50
2018-02-08T07:46:09.310Z,5.43
2018-02-08T07:48:38.870Z,5.97
2018-02-08T07:51:08.417Z,6.53
2018-02-08T07:53:50.578Z,6.20
2018-02-08T07:56:20.071Z,5.30
2018-02-08T07:58:49.626Z,6.27
2018-02-08T08:01:19.175Z,5.40
2018-02-08T08:03:48.685Z,6.63
2018-02-08T08:06:18.215Z,5.30
2018-02-08T08:09:00.819Z,5.63
2018-02-08T08:11:30.290Z,5.70
2018-02-08T08:13:59.830Z,5.77
2018-02-08T08:16:29.392Z,7.10
2018-02-08T08:19:08.678Z,7.30
2018-02-08T08:21:38.222Z,5.97
2018-02-08T08:24:07.735Z,6.10
2018-02-08T08:26:37.198Z,5.80
2018-02-08T08:29:06.760Z,6.30
2018-02-08T08:31:36.321Z,6.23
2018-02-08T08:34:05.888Z,5.60
2018-02-08T08:36:35.420Z,6.20
2018-02-08T08:39:04.982Z,5.97
2018-02-08T08:41:34.534Z,5.53
2018-02-08T08:44:04.104Z,6.27
2018-02-08T08:46:33.650Z,6.47
2018-02-08T08:49:03.927Z,6.23
2018-02-08T08:51:33.468Z,7.57
2018-02-08T08:54:03.038Z,5.90
2018-02-08T08:56:32.565Z,7.23
2018-02-08T08:59:02.213Z,8.37
2018-02-08T09:01:31.693Z,6.53
2018-02-08T09:04:01.249Z,6.90
2018-02-08T09:06:30.822Z,5.57
2018-02-08T09:09:14.067Z,6.63
2018-02-08T09:11:43.617Z,4.83
2018-02-08T09:14:13.098Z,4.73
2018-02-08T09:16:42.615Z,5.63
2018-02-08T09:19:18.300Z,4.73
2018-02-08T09:21:47.828Z,5.00
2018-02-08T09:24:17.384Z,4.90
2018-02-08T09:26:48.458Z,6.10
2018-02-08T09:29:24.303Z,6.00
2018-02-08T09:31:53.792Z,5.97
2018-02-08T09:34:23.331Z,6.37
2018-02-08T09:37:08.643Z,6.17
2018-02-08T09:39:38.150Z,5.70
2018-02-08T09:42:08.970Z,5.73
2018-02-08T09:44:38.493Z,5.20
2018-02-08T09:47:08.014Z,6.50
2018-02-08T09:49:43.662Z,5.50
2018-02-08T09:52:13.193Z,6.13
2018-02-08T09:54:43.121Z,6.50
2018-02-08T09:57:13.497Z,7.07
2018-02-08T09:59:42.975Z,6.33
2018-02-08T10:02:26.171Z,6.10
2018-02-08T10:04:55.706Z,5.50
2018-02-08T10:07:31.418Z,6.67
2018-02-08T10:10:00.947Z,6.77
2018-02-08T10:12:30.481Z,7.10
2018-02-08T10:14:59.994Z,7.87
2018-02-08T10:17:29.538Z,6.60
2018-02-08T10:19:59.053Z,6.10
2018-02-08T10:22:42.561Z,6.83
2018-02-08T10:25:12.081Z,6.60
2018-02-08T10:27:42.834Z,7.13
2018-02-08T10:30:12.305Z,7.07
2018-02-08T10:32:47.190Z,6.00
2018-02-08T10:35:17.783Z,7.47
2018-02-08T10:37:47.591Z,6.20
2018-02-08T10:40:17.114Z,6.20
2018-02-08T10:42:46.614Z,6.20
2018-02-08T10:45:16.162Z,6.30
2018-02-08T10:47:52.666Z,5.53
2018-02-08T10:50:42.998Z,5.83
2018-02-08T10:53:12.475Z,5.40
2018-02-08T10:55:41.958Z,5.97
2018-02-08T10:58:24.822Z,6.50
2018-02-08T11:00:54.322Z,7.00
2018-02-08T11:03:23.944Z,7.63
2018-02-08T11:05:53.615Z,8.07
2018-02-08T11:08:23.202Z,7.97
2018-02-08T11:11:06.266Z,8.23
2018-02-08T11:13:35.805Z,6.93
2018-02-08T11:16:05.350Z,7.33
2018-02-08T11:18:34.861Z,7.57
2018-02-08T11:21:04.369Z,10.60
2018-02-08T11:23:33.845Z,9.83
2018-02-08T11:26:04.358Z,11.50
2018-02-08T11:28:33.893Z,10.73
2018-02-08T11:31:15.478Z,9.57
2018-02-08T11:33:53.743Z,10.13
2018-02-08T11:36:23.271Z,10.00
2018-02-08T11:38:52.782Z,9.93
2018-02-08T11:41:22.502Z,10.00
2018-02-08T11:43:52.146Z,10.50
2018-02-08T11:46:28.237Z,10.80
2018-02-08T11:48:57.782Z,9.13
2018-02-08T11:51:27.302Z,11.60
2018-02-08T11:53:58.594Z,9.37
2018-02-08T11:56:34.134Z,10.23
2018-02-08T11:59:03.684Z,9.50
2018-02-08T12:01:33.234Z,12.47
2018-02-08T12:04:02.864Z,9.07
2018-02-08T12:06:32.385Z,9.83
2018-02-08T12:09:10.417Z,9.97
2018-02-08T12:11:39.974Z,9.40
2018-02-08T12:14:09.458Z,9.30
2018-02-08T12:16:38.978Z,8.60
2018-02-08T12:19:08.540Z,8.23
2018-02-08T12:21:53.109Z,8.77
2018-02-08T12:24:22.617Z,8.83
2018-02-08T12:26:52.101Z,9.30
2018-02-08T12:29:21.633Z,8.97
2018-02-08T12:31:51.133Z,8.77
2018-02-08T12:34:35.241Z,10.07
2018-02-08T12:37:05.746Z,8.87
2018-02-08T12:39:35.257Z,10.90
2018-02-08T12:42:10.865Z,9.30
2018-02-08T12:44:41.421Z,8.57
2018-02-08T12:47:10.977Z,9.20
2018-02-08T12:49:40.632Z,10.50
2018-02-08T12:52:10.213Z,10.80
2018-02-08T12:54:39.786Z,10.13
2018-02-08T12:57:09.316Z,10.47
2018-02-08T12:59:38.953Z,8.00
2018-02-08T13:02:08.488Z,7.07
2018-02-08T13:04:38.206Z,6.27
2018-02-08T13:07:07.729Z,4.47
2018-02-08T13:09:42.647Z,4.50
2018-02-08T13:12:12.102Z,4.83
2018-02-08T13:14:41.669Z,4.27
2018-02-08T13:17:11.191Z,4.07
2018-02-08T13:19:40.742Z,4.03
2018-02-08T13:22:10.241Z,4.10
2018-02-08T13:24:39.768Z,4.27
2018-02-08T13:27:09.295Z,4.00
2018-02-08T13:29:38.817Z,4.20
2018-02-08T13:32:22.738Z,3.90
2018-02-08T13:34:52.246Z,4.57
2018-02-08T13:37:21.805Z,4.83
2018-02-08T13:39:52.114Z,5.13
2018-02-08T13:42:32.522Z,5.50
2018-02-08T13:45:02.075Z,5.40
2018-02-08T13:47:33.489Z,5.60
2018-02-08T13:50:08.640Z,5.53
2018-02-08T13:52:53.842Z,6.73
2018-02-08T13:55:29.077Z,5.07
2018-02-08T13:58:14.418Z,4.80
2018-02-08T14:01:00.605Z,6.23
2018-02-08T14:03:30.226Z,5.10
2018-02-08T14:06:01.122Z,4.13
2018-02-08T14:08:30.601Z,4.47
2018-02-08T14:11:00.179Z,4.47
2018-02-08T14:13:29.917Z,4.80
2018-02-08T14:15:59.435Z,3.97
2018-02-08T14:18:35.140Z,4.30
2018-02-08T14:21:04.695Z,4.73
2018-02-08T14:23:36.002Z,4.30
2018-02-08T14:26:13.011Z,4.70
2018-02-08T14:31:17.277Z,4.10
2018-02-08T14:33:53.013Z,4.07
2018-02-08T14:36:22.542Z,5.50
2018-02-08T14:38:59.531Z,5.23
2018-02-08T14:41:29.054Z,4.70
2018-02-08T14:43:58.579Z,4.40
2018-02-08T14:46:28.149Z,5.20
2018-02-08T14:48:57.671Z,4.30
2018-02-08T14:51:27.218Z,4.80
2018-02-08T14:53:56.765Z,4.43
2018-02-08T14:56:36.584Z,4.47
2018-02-08T14:59:06.171Z,5.20
2018-02-08T15:01:35.733Z,6.00
2018-02-08T15:04:05.290Z,4.60
2018-02-08T15:06:34.789Z,4.13
2018-02-08T15:09:05.442Z,4.23
2018-02-08T15:11:35.022Z,4.67
2018-02-08T15:14:04.558Z,4.70
2018-02-08T15:16:40.122Z,4.40
2018-02-08T15:19:09.653Z,5.00
2018-02-08T15:21:39.193Z,4.60
2018-02-08T15:24:08.855Z,5.00
2018-02-08T15:26:38.504Z,5.50
2018-02-08T15:29:08.059Z,4.93
2018-02-08T15:31:37.601Z,5.00
2018-02-08T15:34:07.090Z,6.00
2018-02-08T15:36:36.773Z,5.10
2018-02-08T15:39:06.294Z,4.60
2018-02-08T15:41:35.879Z,5.20
2018-02-08T15:44:19.404Z,5.03
2018-02-08T15:46:48.916Z,4.07
2018-02-08T15:49:18.489Z,5.03
2018-02-08T15:51:47.949Z,4.40
2018-02-08T15:54:17.620Z,4.10
2018-02-08T15:56:47.146Z,4.50
2018-02-08T15:59:17.746Z,5.50
2018-02-08T16:01:47.324Z,4.70
2018-02-08T16:04:16.859Z,4.80
2018-02-08T16:06:46.400Z,4.57
2018-02-08T16:09:15.915Z,4.27
2018-02-08T16:11:45.881Z,5.23
2018-02-08T16:14:15.450Z,5.10
2018-02-08T16:16:45.209Z,5.30
2018-02-08T16:19:14.738Z,4.57
2018-02-08T16:21:44.286Z,4.90
2018-02-08T16:24:14.194Z,5.20
2018-02-08T16:26:43.750Z,4.97
2018-02-08T16:29:18.674Z,5.50
2018-02-08T16:31:48.157Z,5.30
2018-02-08T16:34:18.124Z,5.70
2018-02-08T16:36:47.664Z,5.40
2018-02-08T16:39:17.199Z,5.63
2018-02-08T16:41:46.709Z,6.17
2018-02-08T16:44:16.433Z,4.67
2018-02-08T16:46:46.090Z,4.63
2018-02-08T16:49:15.616Z,6.13
2018-02-08T16:51:45.145Z,5.90
2018-02-08T16:54:22.706Z,6.40
2018-02-08T16:56:52.353Z,5.40
2018-02-08T16:59:21.871Z,5.60
2018-02-08T17:01:51.402Z,4.90
2018-02-08T17:04:20.917Z,5.40
2018-02-08T17:06:50.640Z,5.03
2018-02-08T17:09:33.331Z,4.60
2018-02-08T17:12:02.840Z,4.87
2018-02-08T17:14:32.373Z,6.20
2018-02-08T17:17:01.990Z,5.73
2018-02-08T17:19:32.726Z,5.50
2018-02-08T17:22:02.221Z,6.50
2018-02-08T17:24:31.873Z,6.03
2018-02-08T17:27:01.430Z,6.20
2018-02-08T17:29:30.905Z,5.67
2018-02-08T17:32:00.535Z,6.33
2018-02-08T17:34:30.057Z,6.50
2018-02-08T17:36:59.533Z,5.80
2018-02-08T17:39:43.535Z,7.10
2018-02-08T17:42:13.105Z,6.27
2018-02-08T17:44:42.876Z,6.90
2018-02-08T17:47:20.042Z,6.27
2018-02-08T17:49:49.528Z,6.40
2018-02-08T17:52:18.997Z,5.57
2018-02-08T17:54:48.544Z,5.97
2018-02-08T17:57:24.487Z,4.27
2018-02-08T17:59:54.007Z,4.40
2018-02-08T18:02:23.686Z,4.90
2018-02-08T18:04:53.211Z,2.83
2018-02-08T18:07:22.682Z,2.87
2018-02-08T18:09:52.211Z,2.27
2018-02-08T18:12:21.741Z,2.60
2018-02-08T18:14:51.316Z,2.23
2018-02-08T18:17:20.826Z,2.20
2018-02-08T18:19:50.318Z,1.90
2018-02-08T18:22:27.653Z,2.47
2018-02-08T18:24:57.174Z,2.30
2018-02-08T18:27:26.819Z,2.60
2018-02-08T18:29:56.369Z,2.50
2018-02-08T18:32:25.901Z,2.10
2018-02-08T18:35:02.764Z,2.50
2018-02-08T18:37:32.315Z,2.07
2018-02-08T18:40:02.120Z,2.00
2018-02-08T18:42:31.818Z,2.63
2018-02-08T18:45:01.375Z,2.60
2018-02-08T18:47:32.058Z,2.70
2018-02-08T18:50:01.816Z,2.50
2018-02-08T18:52:31.666Z,2.83
2018-02-08T18:55:01.325Z,2.63
2018-02-08T18:57:36.906Z,2.43
2018-02-08T19:00:07.768Z,2.70
2018-02-08T19:02:37.263Z,3.13
2018-02-08T19:05:06.775Z,2.90
2018-02-08T19:07:36.319Z,2.67
2018-02-08T19:10:05.834Z,2.93
2018-02-08T19:12:35.380Z,3.13
2018-02-08T19:15:05.098Z,3.13
2018-02-08T19:17:34.872Z,2.93
2018-02-08T19:20:04.409Z,3.70
2018-02-08T19:22:34.192Z,2.80
2018-02-08T19:25:03.689Z,2.63
2018-02-08T19:27:33.225Z,3.53
2018-02-08T19:30:10.562Z,3.70
2018-02-08T19:32:40.122Z,2.70
2018-02-08T19:35:09.801Z,3.30
2018-02-08T19:37:39.310Z,3.67
2018-02-08T19:40:08.803Z,4.20
2018-02-08T19:42:38.384Z,3.83
2018-02-08T19:45:07.912Z,4.07
2018-02-08T19:47:37.453Z,3.97
2018-02-08T19:50:06.945Z,5.60
2018-02-08T19:52:36.606Z,5.63
2018-02-08T19:55:06.169Z,6.03
2018-02-08T19:57:37.049Z,4.93
2018-02-08T20:00:07.868Z,4.80
2018-02-08T20:02:37.424Z,4.40
2018-02-08T20:05:06.992Z,4.70
2018-02-08T20:07:36.511Z,5.37
2018-02-08T20:10:06.207Z,5.53
2018-02-08T20:12:36.104Z,5.87
2018-02-08T20:15:08.657Z,4.27
2018-02-08T20:17:38.171Z,5.40
2018-02-08T20:20:07.671Z,5.30
2018-02-08T20:22:37.295Z,5.33
2018-02-08T20:25:16.844Z,5.43
2018-02-08T20:27:46.489Z,6.37
2018-02-08T20:30:16.015Z,8.00
2018-02-08T20:32:45.578Z,8.20
2018-02-08T20:35:15.345Z,6.80
2018-02-08T20:37:44.837Z,5.73
2018-02-08T20:40:19.402Z,6.60
2018-02-08T20:42:54.709Z,6.00
2018-02-08T20:45:24.443Z,6.07
2018-02-08T20:48:05.991Z,6.00
2018-02-08T20:50:48.110Z,6.97
2018-02-08T20:53:17.765Z,6.77
2018-02-08T20:56:02.255Z,7.97
2018-02-08T20:58:32.045Z,6.80
2018-02-08T21:01:01.732Z,7.93
2018-02-08T21:03:31.287Z,6.50
2018-02-08T21:06:13.073Z,8.13
2018-02-08T21:08:42.609Z,7.40
2018-02-08T21:11:12.185Z,7.33
2018-02-08T21:13:47.860Z,8.57
2018-02-08T21:16:17.443Z,8.70
2018-02-08T21:18:47.049Z,7.90
2018-02-08T21:21:16.603Z,7.60
2018-02-08T21:23:46.231Z,8.60
2018-02-08T21:26:15.729Z,8.00
2018-02-08T21:28:52.839Z,7.93
2018-02-08T21:31:22.772Z,11.83
2018-02-08T21:33:52.290Z,9.50
2018-02-08T21:36:21.822Z,7.40
2018-02-08T21:38:51.525Z,9.63
2018-02-08T21:41:21.054Z,10.40
2018-02-08T21:43:50.604Z,9.23
2018-02-08T21:46:20.149Z,9.60
2018-02-08T21:48:49.692Z,8.70
2018-02-08T21:51:24.314Z,8.80
2018-02-08T21:53:53.982Z,11.93
2018-02-08T21:56:24.034Z,10.00
2018-02-08T21:58:53.686Z,10.50
2018-02-08T22:01:24.331Z,12.63
2018-02-08T22:03:54.150Z,10.07
2018-02-08T22:06:24.373Z,10.10
2018-02-08T22:08:54.933Z,8.60
2018-02-08T22:11:24.500Z,9.67
2018-02-08T22:13:54.065Z,10.57
2018-02-08T22:16:23.674Z,10.13
2018-02-08T22:18:53.208Z,8.30
2018-02-08T22:21:22.724Z,8.90
2018-02-08T22:23:52.253Z,8.77
2018-02-08T22:26:21.790Z,8.33
2018-02-08T22:28:51.317Z,10.83
2018-02-08T22:31:20.884Z,7.63
2018-02-08T22:33:50.441Z,11.30
2018-02-08T22:36:20.009Z,12.17
2018-02-08T22:38:49.609Z,11.50
2018-02-08T22:41:19.168Z,10.80
2018-02-08T22:43:48.709Z,9.30
2018-02-08T22:46:18.244Z,8.33
2018-02-08T22:48:47.785Z,6.37
2018-02-08T22:51:30.243Z,8.40
2018-02-08T22:54:00.635Z,6.83
2018-02-08T22:56:30.325Z,7.60
2018-02-08T22:58:59.858Z,7.20
2018-02-08T23:01:29.579Z,6.40
2018-02-08T23:03:59.134Z,6.30
2018-02-08T23:06:28.714Z,6.90
2018-02-08T23:08:58.227Z,6.13
2018-02-08T23:11:34.743Z,6.83
2018-02-08T23:14:04.222Z,6.30
2018-02-08T23:16:33.753Z,5.60
2018-02-08T23:19:05.491Z,6.07
2018-02-08T23:21:42.533Z,7.67
2018-02-08T23:24:12.058Z,8.80
2018-02-08T23:26:49.590Z,8.80
2018-02-08T23:29:19.091Z,6.67
2018-02-08T23:31:50.231Z,5.87
2018-02-08T23:34:19.718Z,7.97
2018-02-08T23:36:49.244Z,7.80
2018-02-08T23:39:18.795Z,6.20
2018-02-08T23:41:49.961Z,8.87
2018-02-08T23:44:19.455Z,10.47
2018-02-08T23:46:49.011Z,8.03
2018-02-08T23:49:18.502Z,5.70
2018-02-08T23:51:47.993Z,7.63
2018-02-08T23:54:17.512Z,6.17
2018-02-08T23:56:47.304Z,7.10
2018-02-08T23:59:16.890Z,5.60
